sensor_id;sensor_type;location;lat;lon;timestamp;P1;durP1;ratioP1;P2;durP2;ratioP2
52708;SDS011;38606;52.986;6.980;2022-12-07T00:01:10;13.10;;;3.50;;
52708;SDS011;38606;52.986;6.980;2022-12-07T00:03:41;13.50;;;3.75;;
52708;SDS011;38606;52.986;6.980;2022-12-07T00:06:09;8.10;;;3.42;;
52708;SDS011;38606;52.986;6.980;2022-12-07T00:08:36;13.98;;;3.75;;
52708;SDS011;38606;52.986;6.980;2022-12-07T00:13:29;13.88;;;2.97;;
52708;SDS011;38606;52.986;6.980;2022-12-07T00:15:56;10.18;;;2.70;;
52708;SDS011;38606;52.986;6.980;2022-12-07T00:18:26;9.00;;;2.70;;
52708;SDS011;38606;52.986;6.980;2022-12-07T00:20:52;9.55;;;2.58;;
52708;SDS011;38606;52.986;6.980;2022-12-07T00:23:18;13.18;;;2.55;;
52708;SDS011;38606;52.986;6.980;2022-12-07T00:25:43;8.35;;;2.42;;
52708;SDS011;38606;52.986;6.980;2022-12-07T00:28:09;10.63;;;2.08;;
52708;SDS011;38606;52.986;6.980;2022-12-07T00:30:35;12.07;;;2.13;;
52708;SDS011;38606;52.986;6.980;2022-12-07T00:33:01;8.48;;;1.75;;
52708;SDS011;38606;52.986;6.980;2022-12-07T00:35:27;9.43;;;1.80;;
52708;SDS011;38606;52.986;6.980;2022-12-07T00:37:52;11.63;;;1.90;;
52708;SDS011;38606;52.986;6.980;2022-12-07T00:40:18;12.75;;;2.13;;
52708;SDS011;38606;52.986;6.980;2022-12-07T00:42:44;13.32;;;2.38;;
52708;SDS011;38606;52.986;6.980;2022-12-07T00:45:10;6.65;;;1.70;;
52708;SDS011;38606;52.986;6.980;2022-12-07T00:47:35;13.68;;;2.22;;
52708;SDS011;38606;52.986;6.980;2022-12-07T00:50:01;11.70;;;1.88;;
52708;SDS011;38606;52.986;6.980;2022-12-07T00:52:27;11.25;;;1.50;;
52708;SDS011;38606;52.986;6.980;2022-12-07T00:54:52;9.02;;;1.95;;
52708;SDS011;38606;52.986;6.980;2022-12-07T00:57:18;11.23;;;1.88;;
52708;SDS011;38606;52.986;6.980;2022-12-07T00:59:43;7.65;;;1.58;;
52708;SDS011;38606;52.986;6.980;2022-12-07T01:02:09;7.00;;;1.85;;
52708;SDS011;38606;52.986;6.980;2022-12-07T01:04:35;3.70;;;1.38;;
52708;SDS011;38606;52.986;6.980;2022-12-07T01:07:00;7.63;;;1.50;;
52708;SDS011;38606;52.986;6.980;2022-12-07T01:09:26;12.80;;;2.30;;
52708;SDS011;38606;52.986;6.980;2022-12-07T01:11:52;8.20;;;1.30;;
52708;SDS011;38606;52.986;6.980;2022-12-07T01:14:17;10.00;;;1.35;;
52708;SDS011;38606;52.986;6.980;2022-12-07T01:16:43;16.55;;;1.67;;
52708;SDS011;38606;52.986;6.980;2022-12-07T01:19:09;10.18;;;1.40;;
52708;SDS011;38606;52.986;6.980;2022-12-07T01:21:34;5.60;;;1.27;;
52708;SDS011;38606;52.986;6.980;2022-12-07T01:24:03;9.65;;;1.55;;
52708;SDS011;38606;52.986;6.980;2022-12-07T01:26:30;4.90;;;1.65;;
52708;SDS011;38606;52.986;6.980;2022-12-07T01:28:55;9.13;;;1.30;;
52708;SDS011;38606;52.986;6.980;2022-12-07T01:31:24;7.85;;;2.08;;
52708;SDS011;38606;52.986;6.980;2022-12-07T01:33:52;8.35;;;1.35;;
52708;SDS011;38606;52.986;6.980;2022-12-07T01:36:20;8.05;;;1.15;;
52708;SDS011;38606;52.986;6.980;2022-12-07T01:38:51;9.70;;;1.00;;
52708;SDS011;38606;52.986;6.980;2022-12-07T01:41:21;8.02;;;1.13;;
52708;SDS011;38606;52.986;6.980;2022-12-07T01:46:56;5.15;;;1.00;;
52708;SDS011;38606;52.986;6.980;2022-12-07T01:49:40;10.10;;;1.30;;
52708;SDS011;38606;52.986;6.980;2022-12-07T01:54:39;9.52;;;1.35;;
52708;SDS011;38606;52.986;6.980;2022-12-07T01:57:05;7.97;;;1.15;;
52708;SDS011;38606;52.986;6.980;2022-12-07T01:59:32;6.32;;;1.10;;
52708;SDS011;38606;52.986;6.980;2022-12-07T02:01:59;7.22;;;1.65;;
52708;SDS011;38606;52.986;6.980;2022-12-07T02:04:28;8.25;;;1.35;;
52708;SDS011;38606;52.986;6.980;2022-12-07T02:06:55;9.18;;;1.48;;
52708;SDS011;38606;52.986;6.980;2022-12-07T02:09:21;8.43;;;1.48;;
52708;SDS011;38606;52.986;6.980;2022-12-07T02:11:47;7.80;;;1.27;;
52708;SDS011;38606;52.986;6.980;2022-12-07T02:14:13;6.82;;;1.05;;
52708;SDS011;38606;52.986;6.980;2022-12-07T02:22:34;6.32;;;1.20;;
52708;SDS011;38606;52.986;6.980;2022-12-07T02:28:19;10.27;;;1.25;;
52708;SDS011;38606;52.986;6.980;2022-12-07T02:31:12;7.90;;;1.05;;
52708;SDS011;38606;52.986;6.980;2022-12-07T02:33:50;12.85;;;1.80;;
52708;SDS011;38606;52.986;6.980;2022-12-07T02:36:26;6.93;;;1.40;;
52708;SDS011;38606;52.986;6.980;2022-12-07T02:39:08;7.53;;;0.98;;
52708;SDS011;38606;52.986;6.980;2022-12-07T02:41:52;9.60;;;1.20;;
52708;SDS011;38606;52.986;6.980;2022-12-07T02:44:24;5.90;;;1.20;;
52708;SDS011;38606;52.986;6.980;2022-12-07T02:47:00;10.40;;;1.10;;
52708;SDS011;38606;52.986;6.980;2022-12-07T02:49:29;11.40;;;2.40;;
52708;SDS011;38606;52.986;6.980;2022-12-07T02:51:56;9.38;;;1.10;;
52708;SDS011;38606;52.986;6.980;2022-12-07T02:54:22;5.45;;;1.05;;
52708;SDS011;38606;52.986;6.980;2022-12-07T03:00:14;7.50;;;1.10;;
52708;SDS011;38606;52.986;6.980;2022-12-07T03:02:38;15.55;;;1.27;;
52708;SDS011;38606;52.986;6.980;2022-12-07T03:18:45;5.68;;;0.90;;
52708;SDS011;38606;52.986;6.980;2022-12-07T03:24:49;5.97;;;1.00;;
52708;SDS011;38606;52.986;6.980;2022-12-07T03:27:20;10.25;;;1.13;;
52708;SDS011;38606;52.986;6.980;2022-12-07T03:29:51;4.00;;;0.98;;
52708;SDS011;38606;52.986;6.980;2022-12-07T03:32:39;9.55;;;1.20;;
52708;SDS011;38606;52.986;6.980;2022-12-07T03:35:21;7.85;;;1.35;;
52708;SDS011;38606;52.986;6.980;2022-12-07T03:40:26;9.82;;;1.48;;
52708;SDS011;38606;52.986;6.980;2022-12-07T03:42:57;11.70;;;1.13;;
52708;SDS011;38606;52.986;6.980;2022-12-07T03:45:30;11.45;;;1.50;;
52708;SDS011;38606;52.986;6.980;2022-12-07T03:48:05;7.07;;;1.10;;
52708;SDS011;38606;52.986;6.980;2022-12-07T03:53:44;11.82;;;1.10;;
52708;SDS011;38606;52.986;6.980;2022-12-07T03:56:15;10.02;;;1.20;;
52708;SDS011;38606;52.986;6.980;2022-12-07T03:58:41;5.43;;;0.75;;
52708;SDS011;38606;52.986;6.980;2022-12-07T04:01:07;5.82;;;0.90;;
52708;SDS011;38606;52.986;6.980;2022-12-07T04:03:33;6.32;;;1.20;;
52708;SDS011;38606;52.986;6.980;2022-12-07T04:05:58;7.05;;;1.02;;
52708;SDS011;38606;52.986;6.980;2022-12-07T04:08:24;9.90;;;1.10;;
52708;SDS011;38606;52.986;6.980;2022-12-07T04:10:50;9.77;;;2.28;;
52708;SDS011;38606;52.986;6.980;2022-12-07T04:13:16;5.45;;;1.13;;
52708;SDS011;38606;52.986;6.980;2022-12-07T04:15:42;10.18;;;1.08;;
52708;SDS011;38606;52.986;6.980;2022-12-07T04:18:07;7.18;;;0.80;;
52708;SDS011;38606;52.986;6.980;2022-12-07T04:20:33;10.32;;;0.90;;
52708;SDS011;38606;52.986;6.980;2022-12-07T04:22:59;8.05;;;1.10;;
52708;SDS011;38606;52.986;6.980;2022-12-07T04:25:25;8.20;;;0.95;;
52708;SDS011;38606;52.986;6.980;2022-12-07T04:27:50;9.20;;;1.17;;
52708;SDS011;38606;52.986;6.980;2022-12-07T04:30:16;10.32;;;1.42;;
52708;SDS011;38606;52.986;6.980;2022-12-07T04:32:42;8.00;;;1.83;;
52708;SDS011;38606;52.986;6.980;2022-12-07T04:35:07;8.15;;;1.60;;
52708;SDS011;38606;52.986;6.980;2022-12-07T04:37:33;10.65;;;2.38;;
52708;SDS011;38606;52.986;6.980;2022-12-07T04:39:59;6.00;;;1.85;;
52708;SDS011;38606;52.986;6.980;2022-12-07T04:42:25;12.73;;;1.60;;
52708;SDS011;38606;52.986;6.980;2022-12-07T04:44:50;9.95;;;1.52;;
52708;SDS011;38606;52.986;6.980;2022-12-07T04:47:16;7.68;;;1.27;;
52708;SDS011;38606;52.986;6.980;2022-12-07T04:49:42;4.80;;;1.15;;
52708;SDS011;38606;52.986;6.980;2022-12-07T04:52:07;6.75;;;1.20;;
52708;SDS011;38606;52.986;6.980;2022-12-07T04:54:33;8.32;;;1.20;;
52708;SDS011;38606;52.986;6.980;2022-12-07T04:56:59;10.63;;;2.00;;
52708;SDS011;38606;52.986;6.980;2022-12-07T04:59:24;9.95;;;2.20;;
52708;SDS011;38606;52.986;6.980;2022-12-07T05:01:50;6.50;;;2.00;;
52708;SDS011;38606;52.986;6.980;2022-12-07T05:04:16;11.55;;;2.30;;
52708;SDS011;38606;52.986;6.980;2022-12-07T05:06:43;7.95;;;1.55;;
52708;SDS011;38606;52.986;6.980;2022-12-07T05:09:08;9.77;;;1.33;;
52708;SDS011;38606;52.986;6.980;2022-12-07T05:11:34;8.85;;;1.40;;
52708;SDS011;38606;52.986;6.980;2022-12-07T05:14:03;5.63;;;1.50;;
52708;SDS011;38606;52.986;6.980;2022-12-07T05:16:48;4.63;;;1.33;;
52708;SDS011;38606;52.986;6.980;2022-12-07T05:19:15;10.65;;;1.33;;
52708;SDS011;38606;52.986;6.980;2022-12-07T05:21:41;7.07;;;1.10;;
52708;SDS011;38606;52.986;6.980;2022-12-07T05:24:08;6.15;;;1.02;;
52708;SDS011;38606;52.986;6.980;2022-12-07T05:26:36;10.23;;;1.20;;
52708;SDS011;38606;52.986;6.980;2022-12-07T05:29:02;8.00;;;0.90;;
52708;SDS011;38606;52.986;6.980;2022-12-07T05:31:28;5.28;;;0.95;;
52708;SDS011;38606;52.986;6.980;2022-12-07T05:33:54;8.18;;;1.20;;
52708;SDS011;38606;52.986;6.980;2022-12-07T05:36:20;5.50;;;1.10;;
52708;SDS011;38606;52.986;6.980;2022-12-07T05:38:46;10.75;;;1.00;;
52708;SDS011;38606;52.986;6.980;2022-12-07T05:41:13;6.55;;;0.98;;
52708;SDS011;38606;52.986;6.980;2022-12-07T05:43:59;5.40;;;0.90;;
52708;SDS011;38606;52.986;6.980;2022-12-07T05:46:25;8.05;;;0.75;;
52708;SDS011;38606;52.986;6.980;2022-12-07T05:48:50;7.22;;;0.88;;
52708;SDS011;38606;52.986;6.980;2022-12-07T05:51:16;5.03;;;1.33;;
52708;SDS011;38606;52.986;6.980;2022-12-07T05:53:42;4.88;;;1.00;;
52708;SDS011;38606;52.986;6.980;2022-12-07T05:56:08;8.70;;;1.10;;
52708;SDS011;38606;52.986;6.980;2022-12-07T05:58:33;3.85;;;1.13;;
52708;SDS011;38606;52.986;6.980;2022-12-07T06:01:17;4.57;;;0.95;;
52708;SDS011;38606;52.986;6.980;2022-12-07T06:03:43;8.32;;;2.25;;
52708;SDS011;38606;52.986;6.980;2022-12-07T06:06:10;5.18;;;1.13;;
52708;SDS011;38606;52.986;6.980;2022-12-07T06:08:36;8.65;;;1.20;;
52708;SDS011;38606;52.986;6.980;2022-12-07T06:11:01;9.38;;;1.50;;
52708;SDS011;38606;52.986;6.980;2022-12-07T06:13:45;6.53;;;1.20;;
52708;SDS011;38606;52.986;6.980;2022-12-07T06:16:11;10.10;;;1.35;;
52708;SDS011;38606;52.986;6.980;2022-12-07T06:18:37;5.97;;;1.02;;
52708;SDS011;38606;52.986;6.980;2022-12-07T06:21:02;6.88;;;0.95;;
52708;SDS011;38606;52.986;6.980;2022-12-07T06:23:28;8.35;;;1.60;;
52708;SDS011;38606;52.986;6.980;2022-12-07T06:25:54;6.85;;;1.45;;
52708;SDS011;38606;52.986;6.980;2022-12-07T06:28:19;4.75;;;1.30;;
52708;SDS011;38606;52.986;6.980;2022-12-07T06:30:45;14.00;;;1.70;;
52708;SDS011;38606;52.986;6.980;2022-12-07T06:33:11;8.70;;;1.35;;
52708;SDS011;38606;52.986;6.980;2022-12-07T06:35:36;9.82;;;1.23;;
52708;SDS011;38606;52.986;6.980;2022-12-07T06:38:02;7.88;;;1.27;;
52708;SDS011;38606;52.986;6.980;2022-12-07T06:40:28;6.03;;;1.23;;
52708;SDS011;38606;52.986;6.980;2022-12-07T06:42:53;5.18;;;1.20;;
52708;SDS011;38606;52.986;6.980;2022-12-07T06:45:19;8.98;;;1.25;;
52708;SDS011;38606;52.986;6.980;2022-12-07T06:47:45;10.75;;;1.52;;
52708;SDS011;38606;52.986;6.980;2022-12-07T06:50:10;17.70;;;1.85;;
52708;SDS011;38606;52.986;6.980;2022-12-07T06:52:36;9.75;;;1.90;;
52708;SDS011;38606;52.986;6.980;2022-12-07T06:55:02;14.02;;;1.42;;
52708;SDS011;38606;52.986;6.980;2022-12-07T06:57:27;13.27;;;2.03;;
52708;SDS011;38606;52.986;6.980;2022-12-07T06:59:53;13.48;;;1.67;;
52708;SDS011;38606;52.986;6.980;2022-12-07T07:02:19;14.23;;;2.50;;
52708;SDS011;38606;52.986;6.980;2022-12-07T07:04:44;5.28;;;1.42;;
52708;SDS011;38606;52.986;6.980;2022-12-07T07:07:10;14.07;;;1.83;;
52708;SDS011;38606;52.986;6.980;2022-12-07T07:09:35;10.82;;;1.40;;
52708;SDS011;38606;52.986;6.980;2022-12-07T07:12:01;8.38;;;1.25;;
52708;SDS011;38606;52.986;6.980;2022-12-07T07:14:27;11.43;;;1.08;;
52708;SDS011;38606;52.986;6.980;2022-12-07T07:16:53;22.25;;;2.53;;
52708;SDS011;38606;52.986;6.980;2022-12-07T07:19:18;18.92;;;1.48;;
52708;SDS011;38606;52.986;6.980;2022-12-07T07:21:44;14.77;;;1.50;;
52708;SDS011;38606;52.986;6.980;2022-12-07T07:24:10;11.30;;;2.00;;
52708;SDS011;38606;52.986;6.980;2022-12-07T07:26:35;12.18;;;1.27;;
52708;SDS011;38606;52.986;6.980;2022-12-07T07:29:01;14.77;;;1.67;;
52708;SDS011;38606;52.986;6.980;2022-12-07T07:31:27;8.88;;;1.40;;
52708;SDS011;38606;52.986;6.980;2022-12-07T07:33:53;14.10;;;1.83;;
52708;SDS011;38606;52.986;6.980;2022-12-07T07:36:18;13.98;;;2.13;;
52708;SDS011;38606;52.986;6.980;2022-12-07T07:38:44;8.02;;;1.17;;
52708;SDS011;38606;52.986;6.980;2022-12-07T07:41:09;12.38;;;1.73;;
52708;SDS011;38606;52.986;6.980;2022-12-07T07:43:35;13.60;;;2.17;;
52708;SDS011;38606;52.986;6.980;2022-12-07T07:46:01;16.42;;;2.58;;
52708;SDS011;38606;52.986;6.980;2022-12-07T07:48:27;12.13;;;1.67;;
52708;SDS011;38606;52.986;6.980;2022-12-07T07:50:52;7.75;;;1.73;;
52708;SDS011;38606;52.986;6.980;2022-12-07T07:53:18;12.23;;;1.52;;
52708;SDS011;38606;52.986;6.980;2022-12-07T07:55:53;10.63;;;2.67;;
52708;SDS011;38606;52.986;6.980;2022-12-07T07:58:20;7.53;;;1.30;;
52708;SDS011;38606;52.986;6.980;2022-12-07T08:00:46;5.53;;;1.23;;
52708;SDS011;38606;52.986;6.980;2022-12-07T08:03:11;9.13;;;1.33;;
52708;SDS011;38606;52.986;6.980;2022-12-07T08:05:37;10.40;;;1.23;;
52708;SDS011;38606;52.986;6.980;2022-12-07T08:08:03;7.00;;;1.20;;
52708;SDS011;38606;52.986;6.980;2022-12-07T08:10:29;5.25;;;0.80;;
52708;SDS011;38606;52.986;6.980;2022-12-07T08:12:57;5.13;;;0.70;;
52708;SDS011;38606;52.986;6.980;2022-12-07T08:15:43;6.57;;;0.90;;
52708;SDS011;38606;52.986;6.980;2022-12-07T08:18:11;8.02;;;0.90;;
52708;SDS011;38606;52.986;6.980;2022-12-07T08:20:38;2.85;;;0.90;;
52708;SDS011;38606;52.986;6.980;2022-12-07T08:23:04;7.15;;;1.02;;
52708;SDS011;38606;52.986;6.980;2022-12-07T08:25:30;4.28;;;0.80;;
52708;SDS011;38606;52.986;6.980;2022-12-07T08:27:57;4.97;;;0.80;;
52708;SDS011;38606;52.986;6.980;2022-12-07T08:30:23;4.95;;;1.10;;
52708;SDS011;38606;52.986;6.980;2022-12-07T08:32:49;5.28;;;0.95;;
52708;SDS011;38606;52.986;6.980;2022-12-07T08:35:15;6.25;;;1.17;;
52708;SDS011;38606;52.986;6.980;2022-12-07T08:37:41;6.05;;;1.25;;
52708;SDS011;38606;52.986;6.980;2022-12-07T08:40:07;4.38;;;1.13;;
52708;SDS011;38606;52.986;6.980;2022-12-07T08:42:35;5.55;;;1.50;;
52708;SDS011;38606;52.986;6.980;2022-12-07T08:45:08;5.35;;;1.35;;
52708;SDS011;38606;52.986;6.980;2022-12-07T08:47:36;8.38;;;1.20;;
52708;SDS011;38606;52.986;6.980;2022-12-07T08:50:06;6.53;;;1.20;;
52708;SDS011;38606;52.986;6.980;2022-12-07T08:52:34;6.97;;;1.17;;
52708;SDS011;38606;52.986;6.980;2022-12-07T08:55:02;8.90;;;1.27;;
52708;SDS011;38606;52.986;6.980;2022-12-07T08:57:30;7.18;;;1.10;;
52708;SDS011;38606;52.986;6.980;2022-12-07T08:59:57;4.57;;;1.00;;
52708;SDS011;38606;52.986;6.980;2022-12-07T09:02:23;5.97;;;1.25;;
52708;SDS011;38606;52.986;6.980;2022-12-07T09:04:49;8.07;;;1.30;;
52708;SDS011;38606;52.986;6.980;2022-12-07T09:07:15;11.07;;;1.20;;
52708;SDS011;38606;52.986;6.980;2022-12-07T09:09:40;7.78;;;0.93;;
52708;SDS011;38606;52.986;6.980;2022-12-07T09:12:06;2.80;;;0.90;;
52708;SDS011;38606;52.986;6.980;2022-12-07T09:14:32;11.15;;;2.17;;
52708;SDS011;38606;52.986;6.980;2022-12-07T09:17:08;5.97;;;1.48;;
52708;SDS011;38606;52.986;6.980;2022-12-07T09:19:35;4.53;;;1.10;;
52708;SDS011;38606;52.986;6.980;2022-12-07T09:22:01;4.72;;;1.05;;
52708;SDS011;38606;52.986;6.980;2022-12-07T09:24:27;11.98;;;1.33;;
52708;SDS011;38606;52.986;6.980;2022-12-07T09:26:53;4.00;;;1.10;;
52708;SDS011;38606;52.986;6.980;2022-12-07T09:29:18;7.07;;;1.13;;
52708;SDS011;38606;52.986;6.980;2022-12-07T09:31:44;11.30;;;1.35;;
52708;SDS011;38606;52.986;6.980;2022-12-07T09:34:10;9.15;;;1.02;;
52708;SDS011;38606;52.986;6.980;2022-12-07T09:36:36;7.75;;;1.20;;
52708;SDS011;38606;52.986;6.980;2022-12-07T09:39:02;14.38;;;1.70;;
52708;SDS011;38606;52.986;6.980;2022-12-07T09:41:29;10.45;;;1.58;;
52708;SDS011;38606;52.986;6.980;2022-12-07T09:44:04;9.95;;;1.52;;
52708;SDS011;38606;52.986;6.980;2022-12-07T09:46:35;10.65;;;1.40;;
52708;SDS011;38606;52.986;6.980;2022-12-07T09:49:03;12.60;;;1.55;;
52708;SDS011;38606;52.986;6.980;2022-12-07T09:51:30;8.80;;;1.40;;
52708;SDS011;38606;52.986;6.980;2022-12-07T09:53:57;7.80;;;1.52;;
52708;SDS011;38606;52.986;6.980;2022-12-07T09:56:24;6.82;;;1.30;;
52708;SDS011;38606;52.986;6.980;2022-12-07T09:58:51;16.83;;;1.60;;
52708;SDS011;38606;52.986;6.980;2022-12-07T10:01:27;9.48;;;1.50;;
52708;SDS011;38606;52.986;6.980;2022-12-07T10:03:59;6.47;;;1.17;;
52708;SDS011;38606;52.986;6.980;2022-12-07T10:06:35;9.18;;;1.58;;
52708;SDS011;38606;52.986;6.980;2022-12-07T10:09:01;7.15;;;1.20;;
52708;SDS011;38606;52.986;6.980;2022-12-07T10:11:27;6.40;;;1.35;;
52708;SDS011;38606;52.986;6.980;2022-12-07T10:13:53;9.60;;;1.48;;
52708;SDS011;38606;52.986;6.980;2022-12-07T10:16:31;10.57;;;1.73;;
52708;SDS011;38606;52.986;6.980;2022-12-07T10:19:25;12.20;;;1.73;;
52708;SDS011;38606;52.986;6.980;2022-12-07T10:24:31;10.30;;;1.63;;
52708;SDS011;38606;52.986;6.980;2022-12-07T10:26:57;11.95;;;1.70;;
52708;SDS011;38606;52.986;6.980;2022-12-07T10:29:33;12.45;;;1.40;;
52708;SDS011;38606;52.986;6.980;2022-12-07T10:32:05;11.45;;;1.40;;
52708;SDS011;38606;52.986;6.980;2022-12-07T10:34:51;12.20;;;1.58;;
52708;SDS011;38606;52.986;6.980;2022-12-07T10:37:44;12.87;;;1.67;;
52708;SDS011;38606;52.986;6.980;2022-12-07T10:40:28;9.27;;;1.27;;
52708;SDS011;38606;52.986;6.980;2022-12-07T10:45:32;7.47;;;1.30;;
52708;SDS011;38606;52.986;6.980;2022-12-07T10:48:06;12.15;;;1.52;;
52708;SDS011;38606;52.986;6.980;2022-12-07T10:59:17;6.22;;;1.35;;
52708;SDS011;38606;52.986;6.980;2022-12-07T11:04:56;11.40;;;1.77;;
52708;SDS011;38606;52.986;6.980;2022-12-07T11:15:26;10.48;;;1.20;;
52708;SDS011;38606;52.986;6.980;2022-12-07T11:18:09;7.28;;;1.63;;
52708;SDS011;38606;52.986;6.980;2022-12-07T11:21:07;11.13;;;1.10;;
52708;SDS011;38606;52.986;6.980;2022-12-07T11:30:08;9.75;;;1.45;;
52708;SDS011;38606;52.986;6.980;2022-12-07T11:32:40;6.07;;;0.95;;
52708;SDS011;38606;52.986;6.980;2022-12-07T11:35:20;5.47;;;0.95;;
52708;SDS011;38606;52.986;6.980;2022-12-07T11:40:43;4.22;;;1.20;;
52708;SDS011;38606;52.986;6.980;2022-12-07T11:43:15;8.60;;;1.08;;
52708;SDS011;38606;52.986;6.980;2022-12-07T11:46:06;9.00;;;2.35;;
52708;SDS011;38606;52.986;6.980;2022-12-07T11:48:44;9.43;;;2.05;;
52708;SDS011;38606;52.986;6.980;2022-12-07T11:51:29;8.25;;;1.90;;
52708;SDS011;38606;52.986;6.980;2022-12-07T11:54:01;7.05;;;1.50;;
52708;SDS011;38606;52.986;6.980;2022-12-07T11:56:36;9.57;;;1.92;;
52708;SDS011;38606;52.986;6.980;2022-12-07T12:06:35;6.88;;;1.20;;
52708;SDS011;38606;52.986;6.980;2022-12-07T12:14:42;4.00;;;1.27;;
52708;SDS011;38606;52.986;6.980;2022-12-07T12:17:20;4.63;;;0.80;;
52708;SDS011;38606;52.986;6.980;2022-12-07T12:23:09;5.20;;;1.00;;
52708;SDS011;38606;52.986;6.980;2022-12-07T12:25:45;4.82;;;0.98;;
52708;SDS011;38606;52.986;6.980;2022-12-07T12:31:06;5.00;;;1.00;;
52708;SDS011;38606;52.986;6.980;2022-12-07T12:33:38;3.75;;;0.95;;
52708;SDS011;38606;52.986;6.980;2022-12-07T12:51:57;5.40;;;1.10;;
52708;SDS011;38606;52.986;6.980;2022-12-07T12:54:32;3.92;;;0.75;;
52708;SDS011;38606;52.986;6.980;2022-12-07T13:02:29;5.97;;;1.00;;
52708;SDS011;38606;52.986;6.980;2022-12-07T13:13:01;8.32;;;4.38;;
52708;SDS011;38606;52.986;6.980;2022-12-07T13:15:38;5.82;;;3.13;;
52708;SDS011;38606;52.986;6.980;2022-12-07T13:23:23;7.18;;;2.05;;
52708;SDS011;38606;52.986;6.980;2022-12-07T13:37:45;9.73;;;1.88;;
52708;SDS011;38606;52.986;6.980;2022-12-07T13:39:54;6.45;;;1.27;;
52708;SDS011;38606;52.986;6.980;2022-12-07T13:44:51;7.72;;;1.50;;
52708;SDS011;38606;52.986;6.980;2022-12-07T13:47:31;7.55;;;1.40;;
52708;SDS011;38606;52.986;6.980;2022-12-07T13:50:29;7.43;;;1.73;;
52708;SDS011;38606;52.986;6.980;2022-12-07T13:52:57;6.60;;;1.42;;
52708;SDS011;38606;52.986;6.980;2022-12-07T13:55:24;5.80;;;1.23;;
52708;SDS011;38606;52.986;6.980;2022-12-07T13:57:52;10.80;;;1.25;;
52708;SDS011;38606;52.986;6.980;2022-12-07T14:00:23;5.25;;;1.33;;
52708;SDS011;38606;52.986;6.980;2022-12-07T14:03:01;2.97;;;0.80;;
52708;SDS011;38606;52.986;6.980;2022-12-07T14:05:31;3.30;;;0.80;;
52708;SDS011;38606;52.986;6.980;2022-12-07T14:10:29;5.20;;;1.50;;
52708;SDS011;38606;52.986;6.980;2022-12-07T14:12:58;4.78;;;1.40;;
52708;SDS011;38606;52.986;6.980;2022-12-07T14:15:27;5.05;;;1.83;;
52708;SDS011;38606;52.986;6.980;2022-12-07T14:17:55;4.20;;;1.20;;
52708;SDS011;38606;52.986;6.980;2022-12-07T14:20:28;3.05;;;1.10;;
52708;SDS011;38606;52.986;6.980;2022-12-07T14:22:57;5.15;;;1.10;;
52708;SDS011;38606;52.986;6.980;2022-12-07T14:25:23;5.70;;;0.82;;
52708;SDS011;38606;52.986;6.980;2022-12-07T14:27:53;16.33;;;3.05;;
52708;SDS011;38606;52.986;6.980;2022-12-07T14:30:24;7.70;;;0.90;;
52708;SDS011;38606;52.986;6.980;2022-12-07T14:33:02;4.20;;;0.80;;
52708;SDS011;38606;52.986;6.980;2022-12-07T14:35:30;2.83;;;0.65;;
52708;SDS011;38606;52.986;6.980;2022-12-07T14:37:57;4.78;;;0.50;;
52708;SDS011;38606;52.986;6.980;2022-12-07T14:40:26;2.47;;;0.73;;
52708;SDS011;38606;52.986;6.980;2022-12-07T14:43:12;2.42;;;0.80;;
52708;SDS011;38606;52.986;6.980;2022-12-07T14:45:39;5.32;;;0.82;;
52708;SDS011;38606;52.986;6.980;2022-12-07T14:48:05;2.33;;;0.82;;
52708;SDS011;38606;52.986;6.980;2022-12-07T14:50:38;3.45;;;0.80;;
52708;SDS011;38606;52.986;6.980;2022-12-07T14:53:12;2.63;;;0.85;;
52708;SDS011;38606;52.986;6.980;2022-12-07T14:55:41;5.85;;;0.80;;
52708;SDS011;38606;52.986;6.980;2022-12-07T14:58:11;5.32;;;1.10;;
52708;SDS011;38606;52.986;6.980;2022-12-07T15:00:42;4.07;;;1.00;;
52708;SDS011;38606;52.986;6.980;2022-12-07T15:03:08;5.53;;;1.00;;
52708;SDS011;38606;52.986;6.980;2022-12-07T15:05:34;2.28;;;0.80;;
52708;SDS011;38606;52.986;6.980;2022-12-07T15:08:00;4.70;;;0.98;;
52708;SDS011;38606;52.986;6.980;2022-12-07T15:10:27;2.38;;;0.80;;
52708;SDS011;38606;52.986;6.980;2022-12-07T15:12:56;5.80;;;1.13;;
52708;SDS011;38606;52.986;6.980;2022-12-07T15:15:46;2.90;;;0.95;;
52708;SDS011;38606;52.986;6.980;2022-12-07T15:18:12;5.25;;;1.10;;
52708;SDS011;38606;52.986;6.980;2022-12-07T15:20:38;4.50;;;1.20;;
52708;SDS011;38606;52.986;6.980;2022-12-07T15:23:04;4.28;;;0.90;;
52708;SDS011;38606;52.986;6.980;2022-12-07T15:25:30;5.07;;;0.98;;
52708;SDS011;38606;52.986;6.980;2022-12-07T15:27:55;3.75;;;1.02;;
52708;SDS011;38606;52.986;6.980;2022-12-07T15:30:21;3.42;;;1.10;;
52708;SDS011;38606;52.986;6.980;2022-12-07T15:32:50;3.67;;;1.10;;
52708;SDS011;38606;52.986;6.980;2022-12-07T15:35:17;4.50;;;1.25;;
52708;SDS011;38606;52.986;6.980;2022-12-07T15:37:43;5.47;;;1.55;;
52708;SDS011;38606;52.986;6.980;2022-12-07T15:40:09;4.90;;;1.23;;
52708;SDS011;38606;52.986;6.980;2022-12-07T15:42:36;2.65;;;0.90;;
52708;SDS011;38606;52.986;6.980;2022-12-07T15:45:02;3.40;;;0.73;;
52708;SDS011;38606;52.986;6.980;2022-12-07T15:47:33;3.08;;;1.40;;
52708;SDS011;38606;52.986;6.980;2022-12-07T15:50:05;2.83;;;1.10;;
52708;SDS011;38606;52.986;6.980;2022-12-07T15:52:32;3.03;;;1.48;;
52708;SDS011;38606;52.986;6.980;2022-12-07T15:54:58;7.88;;;1.65;;
52708;SDS011;38606;52.986;6.980;2022-12-07T15:57:33;3.63;;;1.10;;
52708;SDS011;38606;52.986;6.980;2022-12-07T16:00:02;4.88;;;1.13;;
52708;SDS011;38606;52.986;6.980;2022-12-07T16:02:29;2.40;;;0.95;;
52708;SDS011;38606;52.986;6.980;2022-12-07T16:04:54;6.38;;;1.55;;
52708;SDS011;38606;52.986;6.980;2022-12-07T16:07:20;3.60;;;1.17;;
52708;SDS011;38606;52.986;6.980;2022-12-07T16:09:46;6.63;;;1.20;;
52708;SDS011;38606;52.986;6.980;2022-12-07T16:12:13;3.20;;;1.05;;
52708;SDS011;38606;52.986;6.980;2022-12-07T16:14:39;5.85;;;1.45;;
52708;SDS011;38606;52.986;6.980;2022-12-07T16:17:05;4.65;;;1.90;;
52708;SDS011;38606;52.986;6.980;2022-12-07T16:19:32;4.72;;;2.20;;
52708;SDS011;38606;52.986;6.980;2022-12-07T16:21:58;4.15;;;1.48;;
52708;SDS011;38606;52.986;6.980;2022-12-07T16:24:24;5.03;;;1.30;;
52708;SDS011;38606;52.986;6.980;2022-12-07T16:26:51;4.80;;;1.38;;
52708;SDS011;38606;52.986;6.980;2022-12-07T16:29:17;5.18;;;1.40;;
52708;SDS011;38606;52.986;6.980;2022-12-07T16:31:44;5.78;;;1.67;;
52708;SDS011;38606;52.986;6.980;2022-12-07T16:34:10;2.83;;;1.27;;
52708;SDS011;38606;52.986;6.980;2022-12-07T16:36:36;5.43;;;1.60;;
52708;SDS011;38606;52.986;6.980;2022-12-07T16:39:02;6.65;;;1.88;;
52708;SDS011;38606;52.986;6.980;2022-12-07T16:41:28;6.55;;;1.90;;
52708;SDS011;38606;52.986;6.980;2022-12-07T16:43:53;3.42;;;1.38;;
52708;SDS011;38606;52.986;6.980;2022-12-07T16:46:19;5.25;;;1.60;;
52708;SDS011;38606;52.986;6.980;2022-12-07T16:48:48;7.47;;;1.50;;
52708;SDS011;38606;52.986;6.980;2022-12-07T16:51:14;3.42;;;1.42;;
52708;SDS011;38606;52.986;6.980;2022-12-07T16:53:41;5.50;;;1.73;;
52708;SDS011;38606;52.986;6.980;2022-12-07T16:56:13;4.68;;;2.08;;
52708;SDS011;38606;52.986;6.980;2022-12-07T16:58:41;13.32;;;5.80;;
52708;SDS011;38606;52.986;6.980;2022-12-07T17:01:08;12.05;;;3.38;;
52708;SDS011;38606;52.986;6.980;2022-12-07T17:03:35;13.00;;;3.20;;
52708;SDS011;38606;52.986;6.980;2022-12-07T17:06:01;14.82;;;3.58;;
52708;SDS011;38606;52.986;6.980;2022-12-07T17:08:27;7.80;;;2.05;;
52708;SDS011;38606;52.986;6.980;2022-12-07T17:10:52;8.90;;;3.28;;
52708;SDS011;38606;52.986;6.980;2022-12-07T17:13:18;7.57;;;2.55;;
52708;SDS011;38606;52.986;6.980;2022-12-07T17:16:03;5.97;;;1.70;;
52708;SDS011;38606;52.986;6.980;2022-12-07T17:18:34;9.05;;;2.22;;
52708;SDS011;38606;52.986;6.980;2022-12-07T17:21:09;7.13;;;2.30;;